createdAt,value
2023-01-21T00:01:18.462Z,0.50
2023-01-21T00:03:46.716Z,0.40
2023-01-21T00:06:16.089Z,0.40
2023-01-21T00:08:44.103Z,0.40
2023-01-21T00:11:14.663Z,0.40
2023-01-21T00:13:43.122Z,0.40
2023-01-21T00:16:12.930Z,0.40
2023-01-21T00:18:41.396Z,0.40
2023-01-21T00:21:09.705Z,0.40
2023-01-21T00:23:38.116Z,0.40
2023-01-21T00:26:06.958Z,0.40
2023-01-21T00:28:36.380Z,0.40
2023-01-21T00:31:05.482Z,0.40
2023-01-21T00:33:35.955Z,0.50
2023-01-21T00:36:04.823Z,0.50
2023-01-21T00:38:33.664Z,0.60
2023-01-21T00:41:02.171Z,0.60
2023-01-21T00:43:30.873Z,0.60
2023-01-21T00:45:59.039Z,0.60
2023-01-21T00:48:28.528Z,0.70
2023-01-21T00:51:00.848Z,0.70
2023-01-21T00:53:29.820Z,0.70
2023-01-21T00:56:00.426Z,0.70
2023-01-21T00:58:28.642Z,0.70
2023-01-21T01:01:01.466Z,0.80
2023-01-21T01:03:29.546Z,0.80
2023-01-21T01:06:04.262Z,0.90
2023-01-21T01:08:32.396Z,0.90
2023-01-21T01:11:01.377Z,0.90
2023-01-21T01:13:29.968Z,0.90
2023-01-21T01:15:58.840Z,1.00
2023-01-21T01:18:27.378Z,1.00
2023-01-21T01:20:55.661Z,1.00
2023-01-21T01:23:25.503Z,1.00
2023-01-21T01:25:56.874Z,1.10
2023-01-21T01:28:25.177Z,1.10
2023-01-21T01:30:53.270Z,1.10
2023-01-21T01:33:21.991Z,1.20
2023-01-21T01:35:50.093Z,1.20
2023-01-21T01:38:20.373Z,1.20
2023-01-21T01:40:50.449Z,1.20
2023-01-21T01:43:20.759Z,1.30
2023-01-21T01:45:49.507Z,1.30
2023-01-21T01:48:20.278Z,1.30
2023-01-21T01:50:48.907Z,1.30
2023-01-21T01:53:18.554Z,1.30
2023-01-21T01:55:47.794Z,1.30
2023-01-21T01:58:18.355Z,1.20
2023-01-21T02:00:46.963Z,1.30
2023-01-21T02:03:33.264Z,1.20
2023-01-21T02:06:01.921Z,1.30
2023-01-21T02:08:32.622Z,1.30
2023-01-21T02:11:02.596Z,1.30
2023-01-21T02:13:33.213Z,1.30
2023-01-21T02:16:09.553Z,1.30
2023-01-21T02:18:41.592Z,1.30
2023-01-21T02:21:27.981Z,1.30
2023-01-21T02:24:06.822Z,1.30
2023-01-21T02:26:53.498Z,1.20
2023-01-21T02:29:36.085Z,1.10
2023-01-21T02:32:14.778Z,1.10
2023-01-21T02:34:46.455Z,1.10
2023-01-21T02:37:17.326Z,1.10
2023-01-21T02:39:51.493Z,1.10
2023-01-21T02:42:24.639Z,1.10
2023-01-21T02:44:56.951Z,1.20
2023-01-21T02:47:29.645Z,1.20
2023-01-21T02:50:02.017Z,1.30
2023-01-21T02:52:31.241Z,1.30
2023-01-21T02:54:59.828Z,1.30
2023-01-21T02:57:34.528Z,1.30
2023-01-21T03:00:03.591Z,1.30
2023-01-21T03:02:46.076Z,1.30
2023-01-21T03:05:18.097Z,1.30
2023-01-21T03:07:49.344Z,1.20
2023-01-21T03:10:21.532Z,1.20
2023-01-21T03:12:54.147Z,1.20
2023-01-21T03:15:41.921Z,1.20
2023-01-21T03:18:12.949Z,1.20
2023-01-21T03:20:44.344Z,1.20
2023-01-21T03:23:15.201Z,1.20
2023-01-21T03:25:43.259Z,1.20
2023-01-21T03:28:12.973Z,1.20
2023-01-21T03:30:42.061Z,1.20
2023-01-21T03:33:11.944Z,1.20
2023-01-21T03:35:42.418Z,1.30
2023-01-21T03:38:15.014Z,1.20
2023-01-21T03:40:44.189Z,1.10
2023-01-21T03:43:12.770Z,1.00
2023-01-21T03:45:44.188Z,1.00
2023-01-21T03:48:17.561Z,1.00
2023-01-21T03:50:48.313Z,1.00
2023-01-21T03:53:18.442Z,1.00
2023-01-21T03:55:46.524Z,1.10
2023-01-21T03:58:14.535Z,1.10
2023-01-21T04:00:43.110Z,1.10
2023-01-21T04:03:11.251Z,1.10
2023-01-21T04:05:39.604Z,1.10
2023-01-21T04:08:07.687Z,1.00
2023-01-21T04:10:37.428Z,1.00
2023-01-21T04:13:05.436Z,1.00
2023-01-21T04:15:33.948Z,1.10
2023-01-21T04:18:01.987Z,1.10
2023-01-21T04:20:30.271Z,1.00
2023-01-21T04:22:58.320Z,0.90
2023-01-21T04:25:26.608Z,0.90
2023-01-21T04:27:55.972Z,0.90
2023-01-21T04:30:24.399Z,0.80
2023-01-21T04:32:52.465Z,0.80
2023-01-21T04:35:20.843Z,0.80
2023-01-21T04:37:49.329Z,0.80
2023-01-21T04:40:18.041Z,0.90
2023-01-21T04:42:46.380Z,0.90
2023-01-21T04:45:15.832Z,0.90
2023-01-21T04:47:45.125Z,0.90
2023-01-21T04:50:13.545Z,0.80
2023-01-21T04:52:42.273Z,0.80
2023-01-21T04:55:11.117Z,0.90
2023-01-21T04:57:39.777Z,0.90
2023-01-21T05:00:09.286Z,1.00
2023-01-21T05:02:39.538Z,1.00
2023-01-21T05:05:07.986Z,1.00
2023-01-21T05:07:36.433Z,1.00
2023-01-21T05:10:07.128Z,1.00
2023-01-21T05:12:35.152Z,1.00
2023-01-21T05:15:05.091Z,1.00
2023-01-21T05:17:33.146Z,0.90
2023-01-21T05:20:02.814Z,0.80
2023-01-21T05:22:30.971Z,0.80
2023-01-21T05:25:00.597Z,0.80
2023-01-21T05:27:29.051Z,0.80
2023-01-21T05:29:57.906Z,0.80
2023-01-21T05:32:26.202Z,0.80
2023-01-21T05:34:54.304Z,0.80
2023-01-21T05:37:24.019Z,0.80
2023-01-21T05:39:52.167Z,0.60
2023-01-21T05:42:20.400Z,0.50
2023-01-21T05:44:48.809Z,0.40
2023-01-21T05:47:16.841Z,0.30
2023-01-21T05:49:45.437Z,0.20
2023-01-21T05:52:13.547Z,0.10
2023-01-21T05:54:59.895Z,0.10
2023-01-21T05:57:29.508Z,0.00
2023-01-21T05:59:58.010Z,0.00
2023-01-21T06:02:26.361Z,0.10
2023-01-21T06:04:54.914Z,0.20
2023-01-21T06:07:22.979Z,0.20
2023-01-21T06:09:52.534Z,0.30
2023-01-21T06:12:22.691Z,0.30
2023-01-21T06:14:52.182Z,0.30
2023-01-21T06:17:20.355Z,0.20
2023-01-21T06:19:48.414Z,0.30
2023-01-21T06:22:17.229Z,0.30
2023-01-21T06:24:45.586Z,0.40
2023-01-21T06:27:15.241Z,0.30
2023-01-21T06:29:43.927Z,0.30
2023-01-21T06:32:12.500Z,0.30
2023-01-21T06:34:40.561Z,0.20
2023-01-21T06:37:08.868Z,0.20
2023-01-21T06:39:37.865Z,0.20
2023-01-21T06:42:06.005Z,0.30
2023-01-21T06:44:35.874Z,0.30
2023-01-21T06:47:03.980Z,0.40
2023-01-21T06:49:32.364Z,0.40
2023-01-21T06:52:00.368Z,0.30
2023-01-21T06:54:30.520Z,0.30
2023-01-21T06:56:58.893Z,0.30
2023-01-21T06:59:27.083Z,0.40
2023-01-21T07:01:59.199Z,0.40
2023-01-21T07:04:27.726Z,0.40
2023-01-21T07:06:56.355Z,0.30
2023-01-21T07:09:24.450Z,0.10
2023-01-21T07:11:53.094Z,0.00
2023-01-21T07:14:21.093Z,-0.10
2023-01-21T07:16:49.190Z,-0.10
2023-01-21T07:19:18.830Z,0.00
2023-01-21T07:21:47.093Z,0.00
2023-01-21T07:24:15.649Z,-0.10
2023-01-21T07:26:43.674Z,-0.10
2023-01-21T07:29:12.405Z,-0.30
2023-01-21T07:31:40.633Z,-0.10
2023-01-21T07:34:09.042Z,-0.30
2023-01-21T07:36:38.693Z,-0.40
2023-01-21T07:39:06.913Z,-0.50
2023-01-21T07:41:35.575Z,-0.60
2023-01-21T07:44:07.313Z,-0.70
2023-01-21T07:46:36.324Z,-0.60
2023-01-21T07:49:04.714Z,-0.60
2023-01-21T07:51:33.535Z,-0.70
2023-01-21T07:54:02.953Z,-0.70
2023-01-21T07:56:31.557Z,-0.60
2023-01-21T07:58:59.716Z,-0.60
2023-01-21T08:01:31.109Z,-0.60
2023-01-21T08:03:59.932Z,-0.60
2023-01-21T08:06:28.247Z,-0.60
2023-01-21T08:08:56.798Z,-0.60
2023-01-21T08:11:26.374Z,-0.60
2023-01-21T08:13:58.088Z,-0.50
2023-01-21T08:16:26.305Z,-0.50
2023-01-21T08:18:54.616Z,-0.50
2023-01-21T08:21:23.336Z,-0.40
2023-01-21T08:23:51.416Z,-0.50
2023-01-21T08:26:20.014Z,-0.50
2023-01-21T08:28:49.507Z,-0.60
2023-01-21T08:31:18.152Z,-0.60
2023-01-21T08:33:46.261Z,-0.60
2023-01-21T08:36:15.710Z,-0.60
2023-01-21T08:38:44.397Z,-0.60
2023-01-21T08:41:12.721Z,-0.60
2023-01-21T08:43:41.754Z,-0.60
2023-01-21T08:46:11.286Z,-0.60
2023-01-21T08:48:39.634Z,-0.70
2023-01-21T08:51:07.885Z,-0.70
2023-01-21T08:53:36.379Z,-0.70
2023-01-21T08:56:05.113Z,-0.70
2023-01-21T08:58:34.256Z,-0.70
2023-01-21T09:01:07.616Z,-0.70
2023-01-21T09:03:38.111Z,-0.80
2023-01-21T09:06:06.655Z,-0.70
2023-01-21T09:08:36.331Z,-0.70
2023-01-21T09:11:06.995Z,-0.70
2023-01-21T09:13:37.088Z,-0.70
2023-01-21T09:16:09.027Z,-0.60
2023-01-21T09:18:38.539Z,-0.50
2023-01-21T09:21:07.422Z,-0.50
2023-01-21T09:23:35.943Z,-0.40
2023-01-21T09:26:05.441Z,-0.30
2023-01-21T09:28:34.346Z,-0.30
2023-01-21T09:31:03.627Z,-0.30
2023-01-21T09:33:32.765Z,-0.30
2023-01-21T09:36:03.131Z,-0.30
2023-01-21T09:38:31.581Z,-0.30
2023-01-21T09:41:03.474Z,-0.20
2023-01-21T09:43:35.236Z,-0.20
2023-01-21T09:46:04.683Z,-0.10
2023-01-21T09:48:37.057Z,-0.10
2023-01-21T09:51:09.117Z,-0.10
2023-01-21T09:53:44.171Z,-0.10
2023-01-21T09:56:17.025Z,-0.20
2023-01-21T09:58:47.595Z,-0.20
2023-01-21T10:01:19.911Z,-0.20
2023-01-21T10:03:51.511Z,-0.20
2023-01-21T10:06:24.168Z,-0.10
2023-01-21T10:09:03.952Z,-0.10
2023-01-21T10:11:39.272Z,0.00
2023-01-21T10:14:14.713Z,0.00
2023-01-21T10:16:45.626Z,0.00
2023-01-21T10:19:15.499Z,0.10
2023-01-21T10:21:46.917Z,0.10
2023-01-21T10:24:16.447Z,0.10
2023-01-21T10:26:45.453Z,0.10
2023-01-21T10:29:17.534Z,0.10
2023-01-21T10:31:48.057Z,0.20
2023-01-21T10:34:18.257Z,0.20
2023-01-21T10:36:58.181Z,0.30
2023-01-21T10:39:30.206Z,0.30
2023-01-21T10:42:07.724Z,0.40
2023-01-21T10:44:40.255Z,0.50
2023-01-21T10:47:10.727Z,0.50
2023-01-21T10:49:47.388Z,0.60
2023-01-21T10:52:20.293Z,0.70
2023-01-21T10:54:52.630Z,0.70
2023-01-21T10:57:30.923Z,0.80
2023-01-21T11:00:00.847Z,0.80
2023-01-21T11:02:30.668Z,0.80
2023-01-21T11:05:00.266Z,0.80
2023-01-21T11:07:31.071Z,0.90
2023-01-21T11:09:59.769Z,0.90
2023-01-21T11:12:30.679Z,1.00
2023-01-21T11:15:00.552Z,1.00
2023-01-21T11:17:33.420Z,1.00
2023-01-21T11:20:03.326Z,1.00
2023-01-21T11:22:33.634Z,1.00
2023-01-21T11:25:03.155Z,1.00
2023-01-21T11:27:35.817Z,1.00
2023-01-21T11:30:20.918Z,1.10
2023-01-21T11:32:53.717Z,1.10
2023-01-21T11:35:23.164Z,1.10
2023-01-21T11:37:52.675Z,1.20
2023-01-21T11:40:23.853Z,1.30
2023-01-21T11:42:52.808Z,1.30
2023-01-21T11:45:27.933Z,1.30
2023-01-21T11:47:56.263Z,1.30
2023-01-21T11:50:27.383Z,1.30
2023-01-21T11:53:15.056Z,1.30
2023-01-21T11:55:46.321Z,1.30
2023-01-21T11:58:19.564Z,1.30
2023-01-21T12:00:49.239Z,1.30
2023-01-21T12:03:19.464Z,1.30
2023-01-21T12:05:50.107Z,1.30
2023-01-21T12:08:23.972Z,1.30
2023-01-21T12:10:53.968Z,1.30
2023-01-21T12:13:23.622Z,1.30
2023-01-21T12:16:13.961Z,1.20
2023-01-21T12:18:51.263Z,1.20
2023-01-21T12:21:24.758Z,1.20
2023-01-21T12:24:00.468Z,1.10
2023-01-21T12:26:35.314Z,1.00
2023-01-21T12:29:12.107Z,1.10
2023-01-21T12:31:43.595Z,1.10
2023-01-21T12:34:13.944Z,1.10
2023-01-21T12:36:44.537Z,1.10
2023-01-21T12:39:26.046Z,1.10
2023-01-21T12:42:06.101Z,1.10
2023-01-21T12:44:36.192Z,1.20
2023-01-21T12:47:07.669Z,1.20
2023-01-21T12:49:49.039Z,1.20
2023-01-21T12:52:20.117Z,1.10
2023-01-21T12:54:53.590Z,1.10
2023-01-21T12:57:27.003Z,1.10
2023-01-21T12:59:57.405Z,1.10
2023-01-21T13:02:29.775Z,1.00
2023-01-21T13:04:59.207Z,1.00
2023-01-21T13:07:31.278Z,1.00
2023-01-21T13:10:03.524Z,1.00
2023-01-21T13:12:33.760Z,1.00
2023-01-21T13:15:03.762Z,1.00
2023-01-21T13:17:33.824Z,1.00
2023-01-21T13:20:02.785Z,1.00
2023-01-21T13:22:35.985Z,1.00
2023-01-21T13:25:13.825Z,1.10
2023-01-21T13:27:44.570Z,1.10
2023-01-21T13:30:18.425Z,1.10
2023-01-21T13:32:50.165Z,1.10
2023-01-21T13:35:24.129Z,1.10
2023-01-21T13:37:56.659Z,1.10
2023-01-21T13:40:35.112Z,1.20
2023-01-21T13:43:08.436Z,1.20
2023-01-21T13:45:49.111Z,1.30
2023-01-21T13:48:33.591Z,1.30
2023-01-21T13:51:11.310Z,1.30
2023-01-21T13:53:49.084Z,1.30
2023-01-21T13:56:26.222Z,1.30
2023-01-21T13:58:57.834Z,1.40
2023-01-21T14:01:28.976Z,1.40
2023-01-21T14:04:02.994Z,1.40
2023-01-21T14:06:34.409Z,1.40
2023-01-21T14:09:05.306Z,1.40
2023-01-21T14:11:37.849Z,1.30
2023-01-21T14:14:28.468Z,1.30
2023-01-21T14:17:11.426Z,1.30
2023-01-21T14:19:48.564Z,1.30
2023-01-21T14:22:24.481Z,1.30
2023-01-21T14:25:02.300Z,1.20
2023-01-21T14:27:37.520Z,1.30
2023-01-21T14:30:09.623Z,1.30
2023-01-21T14:32:41.562Z,1.30
2023-01-21T14:35:15.186Z,1.30
2023-01-21T14:37:45.144Z,1.30
2023-01-21T14:40:18.503Z,1.30
2023-01-21T14:42:49.305Z,1.20
2023-01-21T14:45:19.686Z,1.30
2023-01-21T14:47:48.847Z,1.30
2023-01-21T14:50:35.696Z,1.30
2023-01-21T14:53:11.191Z,1.40
2023-01-21T14:55:40.003Z,1.40
2023-01-21T14:58:18.213Z,1.40
2023-01-21T15:00:47.371Z,1.40
2023-01-21T15:03:17.338Z,1.40
2023-01-21T15:05:49.784Z,1.50
2023-01-21T15:08:20.445Z,1.50
2023-01-21T15:10:52.391Z,1.50
2023-01-21T15:13:36.105Z,1.50
2023-01-21T15:16:06.670Z,1.50
2023-01-21T15:18:39.576Z,1.50
2023-01-21T15:21:26.792Z,1.40
2023-01-21T15:24:13.668Z,1.40
2023-01-21T15:26:42.677Z,1.30
2023-01-21T15:29:25.214Z,1.30
2023-01-21T15:31:54.231Z,1.30
2023-01-21T15:34:23.062Z,1.20
2023-01-21T15:36:57.370Z,1.30
2023-01-21T15:39:28.588Z,1.20
2023-01-21T15:42:01.084Z,1.20
2023-01-21T15:44:36.415Z,1.20
2023-01-21T15:47:09.597Z,1.20
2023-01-21T15:49:45.056Z,1.20
2023-01-21T15:52:21.238Z,1.20
2023-01-21T15:54:54.070Z,1.20
2023-01-21T15:57:28.245Z,1.30
2023-01-21T16:00:03.760Z,1.30
2023-01-21T16:02:34.896Z,1.30
2023-01-21T16:05:14.903Z,1.30
2023-01-21T16:07:49.107Z,1.30
2023-01-21T16:10:20.009Z,1.30
2023-01-21T16:12:52.808Z,1.30
2023-01-21T16:15:27.789Z,1.30
2023-01-21T16:18:03.989Z,1.20
2023-01-21T16:20:32.649Z,1.30
2023-01-21T16:23:01.921Z,1.20
2023-01-21T16:25:30.556Z,1.20
2023-01-21T16:27:59.067Z,1.30
2023-01-21T16:30:29.820Z,1.30
2023-01-21T16:33:12.572Z,1.30
2023-01-21T16:35:48.490Z,1.20
2023-01-21T16:38:18.484Z,1.20
2023-01-21T16:40:46.977Z,1.20
2023-01-21T16:43:19.019Z,1.10
2023-01-21T16:45:52.746Z,1.10
2023-01-21T16:48:23.452Z,1.10
2023-01-21T16:50:52.188Z,1.10
2023-01-21T16:53:21.264Z,1.10
2023-01-21T16:55:50.519Z,1.00
2023-01-21T16:58:23.248Z,1.00
2023-01-21T17:01:05.957Z,1.10
2023-01-21T17:03:35.104Z,1.00
2023-01-21T17:06:05.971Z,1.10
2023-01-21T17:08:34.904Z,1.10
2023-01-21T17:11:04.444Z,1.00
2023-01-21T17:13:33.060Z,1.00
2023-01-21T17:16:03.052Z,1.00
2023-01-21T17:18:32.800Z,1.00
2023-01-21T17:21:03.381Z,0.90
2023-01-21T17:23:34.552Z,0.90
2023-01-21T17:26:04.794Z,0.90
2023-01-21T17:28:38.560Z,0.90
2023-01-21T17:31:12.334Z,0.90
2023-01-21T17:33:40.563Z,0.90
2023-01-21T17:36:10.103Z,0.90
2023-01-21T17:38:42.002Z,0.80
2023-01-21T17:41:12.544Z,0.80
2023-01-21T17:43:41.076Z,0.80
2023-01-21T17:46:14.670Z,0.70
2023-01-21T17:48:47.356Z,0.70
2023-01-21T17:51:16.852Z,0.70
2023-01-21T17:53:53.163Z,0.70
2023-01-21T17:56:34.901Z,0.60
2023-01-21T17:59:03.796Z,0.60
2023-01-21T18:01:32.674Z,0.60
2023-01-21T18:04:02.665Z,0.60
2023-01-21T18:06:33.877Z,0.60
2023-01-21T18:09:03.258Z,0.60
2023-01-21T18:11:31.453Z,0.60
2023-01-21T18:14:01.144Z,0.70
2023-01-21T18:16:29.976Z,0.60
2023-01-21T18:18:58.310Z,0.60
2023-01-21T18:21:27.680Z,0.60
2023-01-21T18:23:56.278Z,0.60
2023-01-21T18:26:27.730Z,0.50
2023-01-21T18:28:55.839Z,0.60
2023-01-21T18:31:24.300Z,0.60
2023-01-21T18:33:54.009Z,0.50
2023-01-21T18:36:22.165Z,0.50
2023-01-21T18:38:51.576Z,0.50
2023-01-21T18:41:20.181Z,0.50
2023-01-21T18:43:48.305Z,0.50
2023-01-21T18:46:19.935Z,0.50
2023-01-21T18:48:48.427Z,0.50
2023-01-21T18:51:17.556Z,0.50
2023-01-21T18:53:46.716Z,0.60
2023-01-21T18:56:20.217Z,0.60
2023-01-21T18:58:48.330Z,0.60
2023-01-21T19:01:23.540Z,0.70
2023-01-21T19:03:53.729Z,0.80
2023-01-21T19:06:21.873Z,0.80
2023-01-21T19:08:50.123Z,0.80
2023-01-21T19:11:18.977Z,0.80
2023-01-21T19:13:48.688Z,0.80
2023-01-21T19:16:18.007Z,0.80
2023-01-21T19:18:46.533Z,0.80
2023-01-21T19:21:15.474Z,0.80
2023-01-21T19:23:44.231Z,0.70
2023-01-21T19:26:13.624Z,0.70
2023-01-21T19:28:42.418Z,0.80
2023-01-21T19:31:11.932Z,0.80
2023-01-21T19:33:43.107Z,0.80
2023-01-21T19:36:14.922Z,0.70
2023-01-21T19:38:44.257Z,0.70
2023-01-21T19:41:12.394Z,0.70
2023-01-21T19:43:42.060Z,0.70
2023-01-21T19:46:12.550Z,0.70
2023-01-21T19:48:41.328Z,0.70
2023-01-21T19:51:10.063Z,0.70
2023-01-21T19:53:38.118Z,0.60
2023-01-21T19:56:06.823Z,0.50
2023-01-21T19:58:35.689Z,0.60
2023-01-21T20:01:04.299Z,0.70
2023-01-21T20:03:33.827Z,0.70
2023-01-21T20:06:03.473Z,0.70
2023-01-21T20:08:32.061Z,0.80
2023-01-21T20:11:00.199Z,0.80
2023-01-21T20:13:31.397Z,0.70
2023-01-21T20:16:02.010Z,0.60
2023-01-21T20:18:32.483Z,0.50
2023-01-21T20:21:02.346Z,0.50
2023-01-21T20:23:32.549Z,0.50
2023-01-21T20:26:01.103Z,0.50
2023-01-21T20:28:34.569Z,0.40
2023-01-21T20:31:06.526Z,0.40
2023-01-21T20:33:35.519Z,0.40
2023-01-21T20:36:06.704Z,0.40
2023-01-21T20:38:35.898Z,0.40
2023-01-21T20:41:04.891Z,0.50
2023-01-21T20:43:33.344Z,0.40
2023-01-21T20:46:02.510Z,0.30
2023-01-21T20:48:33.182Z,0.30
2023-01-21T20:51:01.728Z,0.30
2023-01-21T20:53:32.074Z,0.20
2023-01-21T20:56:01.346Z,0.20
2023-01-21T20:58:29.826Z,0.10
2023-01-21T21:00:57.947Z,0.20
2023-01-21T21:03:26.354Z,0.30
2023-01-21T21:05:54.505Z,0.10
2023-01-21T21:08:22.942Z,0.10
2023-01-21T21:10:53.124Z,0.10
2023-01-21T21:13:21.221Z,0.00
2023-01-21T21:15:49.799Z,0.00
2023-01-21T21:18:17.849Z,0.10
2023-01-21T21:20:46.396Z,0.10
2023-01-21T21:23:15.001Z,0.10
2023-01-21T21:25:44.599Z,0.20
2023-01-21T21:28:15.744Z,0.10
2023-01-21T21:30:44.564Z,0.10
2023-01-21T21:33:17.635Z,0.20
2023-01-21T21:35:47.031Z,0.20
2023-01-21T21:38:16.515Z,0.10
2023-01-21T21:40:46.261Z,0.10
2023-01-21T21:43:38.756Z,0.10
2023-01-21T21:46:25.279Z,0.00
2023-01-21T21:48:53.672Z,-0.10
2023-01-21T21:51:23.016Z,0.00
2023-01-21T21:53:51.464Z,0.00
2023-01-21T21:56:20.662Z,0.00
2023-01-21T21:58:50.954Z,-0.10
2023-01-21T22:01:20.651Z,-0.10
2023-01-21T22:03:49.088Z,-0.10
2023-01-21T22:06:18.166Z,-0.10
2023-01-21T22:08:46.668Z,-0.10
2023-01-21T22:11:16.240Z,-0.10
2023-01-21T22:13:44.822Z,0.00
2023-01-21T22:16:15.887Z,-0.10
2023-01-21T22:18:44.013Z,-0.10
2023-01-21T22:21:13.649Z,-0.10
2023-01-21T22:23:42.518Z,-0.10
2023-01-21T22:26:12.913Z,-0.10
2023-01-21T22:28:41.283Z,-0.10
2023-01-21T22:31:10.310Z,-0.10
2023-01-21T22:33:40.570Z,-0.10
2023-01-21T22:36:09.796Z,-0.10
2023-01-21T22:38:40.645Z,-0.10
2023-01-21T22:41:09.080Z,-0.10
2023-01-21T22:43:39.588Z,-0.20
2023-01-21T22:46:07.881Z,-0.20
2023-01-21T22:48:36.183Z,-0.20
2023-01-21T22:51:06.067Z,-0.20
2023-01-21T22:53:34.365Z,-0.20
2023-01-21T22:56:03.568Z,-0.20
2023-01-21T22:58:32.690Z,-0.20
2023-01-21T23:01:01.239Z,-0.20
2023-01-21T23:03:30.468Z,-0.20
2023-01-21T23:06:03.167Z,-0.20
2023-01-21T23:08:32.989Z,-0.20
2023-01-21T23:11:01.627Z,-0.20
2023-01-21T23:13:30.019Z,-0.20
2023-01-21T23:15:58.488Z,-0.20
2023-01-21T23:18:27.456Z,-0.20
2023-01-21T23:20:55.811Z,-0.30
2023-01-21T23:23:24.709Z,-0.20
2023-01-21T23:25:54.149Z,-0.30
2023-01-21T23:28:22.478Z,-0.30
2023-01-21T23:30:51.088Z,-0.30
2023-01-21T23:33:19.195Z,-0.20
2023-01-21T23:35:47.726Z,-0.20
2023-01-21T23:38:15.799Z,-0.20
2023-01-21T23:40:43.832Z,-0.10
2023-01-21T23:43:13.449Z,-0.10
2023-01-21T23:45:41.667Z,-0.10
2023-01-21T23:48:09.863Z,-0.10
2023-01-21T23:50:37.924Z,-0.20
2023-01-21T23:53:06.194Z,-0.10
2023-01-21T23:55:34.417Z,-0.20
2023-01-21T23:58:02.964Z,-0.20
